createdAt,value
2022-08-05T00:00:50.550Z,0.75
2022-08-05T00:03:52.471Z,0.30
2022-08-05T00:06:54.915Z,0.33
2022-08-05T00:09:57.596Z,0.40
2022-08-05T00:13:00.328Z,0.63
2022-08-05T00:16:02.294Z,0.40
2022-08-05T00:19:04.618Z,0.23
2022-08-05T00:22:06.335Z,0.35
2022-08-05T00:25:12.676Z,0.70
2022-08-05T00:28:15.174Z,0.30
2022-08-05T00:31:53.237Z,0.50
2022-08-05T00:35:04.511Z,0.65
2022-08-05T00:38:09.437Z,0.47
2022-08-05T00:41:11.694Z,0.40
2022-08-05T00:44:13.747Z,0.70
2022-08-05T00:47:16.465Z,0.20
2022-08-05T00:50:20.927Z,0.28
2022-08-05T00:54:00.396Z,0.70
2022-08-05T00:56:51.494Z,0.20
2022-08-05T00:59:53.576Z,0.68
2022-08-05T01:02:56.411Z,0.30
2022-08-05T01:09:00.637Z,1.17
2022-08-05T01:12:18.209Z,0.82
2022-08-05T01:15:36.375Z,0.45
2022-08-05T01:18:43.204Z,0.77
2022-08-05T01:22:28.130Z,0.38
2022-08-05T01:25:53.774Z,0.40
2022-08-05T01:29:05.395Z,0.50
2022-08-05T01:32:12.466Z,1.23
2022-08-05T01:35:50.606Z,1.17
2022-08-05T01:38:49.998Z,0.50
2022-08-05T01:41:53.500Z,0.52
2022-08-05T01:44:57.135Z,0.60
2022-08-05T01:48:03.169Z,0.17
2022-08-05T01:51:13.063Z,0.85
2022-08-05T01:58:09.366Z,0.70
2022-08-05T02:00:54.027Z,0.43
2022-08-05T02:06:59.473Z,0.45
2022-08-05T02:10:02.783Z,0.47
2022-08-05T02:13:13.038Z,0.60
2022-08-05T02:16:52.896Z,0.65
2022-08-05T02:20:00.927Z,0.60
2022-08-05T02:23:08.698Z,0.43
2022-08-05T02:26:11.866Z,0.80
2022-08-05T02:29:21.374Z,0.80
2022-08-05T02:32:30.975Z,0.55
2022-08-05T02:35:38.557Z,0.75
2022-08-05T02:38:53.973Z,0.55
2022-08-05T02:42:00.634Z,0.50
2022-08-05T02:45:03.971Z,0.90
2022-08-05T02:48:11.922Z,0.85
2022-08-05T02:51:15.723Z,0.70
2022-08-05T02:54:35.687Z,0.38
2022-08-05T02:58:09.834Z,0.52
2022-08-05T03:01:02.431Z,0.55
2022-08-05T03:04:14.019Z,1.02
2022-08-05T03:07:40.337Z,0.70
2022-08-05T03:10:38.306Z,1.08
2022-08-05T03:13:51.781Z,1.67
2022-08-05T03:17:05.045Z,0.70
2022-08-05T03:20:11.220Z,0.30
2022-08-05T03:23:15.326Z,0.60
2022-08-05T03:26:31.471Z,0.88
2022-08-05T03:29:45.120Z,0.63
2022-08-05T03:32:55.789Z,0.50
2022-08-05T03:35:58.995Z,0.77
2022-08-05T03:39:07.815Z,0.63
2022-08-05T03:42:09.699Z,0.73
2022-08-05T03:45:22.416Z,0.60
2022-08-05T03:48:24.965Z,1.27
2022-08-05T03:52:49.231Z,0.60
2022-08-05T03:56:09.453Z,0.70
2022-08-05T03:58:29.369Z,1.17
2022-08-05T04:01:32.187Z,0.43
2022-08-05T04:04:34.134Z,0.88
2022-08-05T04:07:36.151Z,0.75
2022-08-05T04:10:58.814Z,0.85
2022-08-05T04:17:03.314Z,1.02
2022-08-05T04:20:08.012Z,0.50
2022-08-05T04:23:16.026Z,1.42
2022-08-05T04:26:18.053Z,0.55
2022-08-05T04:29:20.245Z,0.60
2022-08-05T04:32:31.083Z,1.42
2022-08-05T04:36:16.270Z,0.50
2022-08-05T04:38:57.681Z,0.73
2022-08-05T04:45:01.383Z,0.50
2022-08-05T04:48:16.337Z,0.80
2022-08-05T04:51:20.538Z,0.30
2022-08-05T04:54:27.259Z,0.50
2022-08-05T04:57:30.141Z,0.73
2022-08-05T05:00:40.066Z,0.40
2022-08-05T05:06:51.931Z,0.32
2022-08-05T05:09:59.305Z,0.40
2022-08-05T05:13:04.652Z,1.35
2022-08-05T05:16:07.148Z,0.77
2022-08-05T05:19:19.207Z,0.60
2022-08-05T05:22:26.619Z,0.73
2022-08-05T05:25:33.002Z,0.52
2022-08-05T05:28:44.950Z,0.70
2022-08-05T05:31:47.284Z,0.60
2022-08-05T05:34:48.975Z,0.55
2022-08-05T05:37:59.939Z,0.20
2022-08-05T05:41:02.417Z,0.40
2022-08-05T05:44:04.430Z,0.30
2022-08-05T05:47:30.189Z,0.47
2022-08-05T05:50:47.850Z,0.80
2022-08-05T05:53:57.960Z,0.52
2022-08-05T05:57:01.272Z,0.52
2022-08-05T06:00:10.408Z,1.50
2022-08-05T06:03:40.079Z,0.80
2022-08-05T06:06:38.401Z,1.15
2022-08-05T06:10:01.677Z,0.60
2022-08-05T06:13:05.494Z,0.50
2022-08-05T06:16:28.160Z,0.60
2022-08-05T06:19:34.228Z,0.60
2022-08-05T06:22:37.359Z,0.52
2022-08-05T06:26:12.237Z,0.40
2022-08-05T06:29:06.472Z,0.20
2022-08-05T06:32:29.238Z,0.80
2022-08-05T06:36:09.338Z,0.40
2022-08-05T06:38:54.753Z,0.30
2022-08-05T06:42:04.379Z,0.50
2022-08-05T06:45:08.904Z,0.73
2022-08-05T06:48:37.316Z,0.57
2022-08-05T06:51:32.750Z,0.50
2022-08-05T06:54:34.676Z,0.40
2022-08-05T06:57:57.270Z,0.50
2022-08-05T07:01:00.899Z,0.77
2022-08-05T07:04:03.176Z,0.40
2022-08-05T07:07:06.258Z,0.45
2022-08-05T07:10:10.395Z,0.40
2022-08-05T07:13:56.970Z,1.05
2022-08-05T07:17:56.776Z,0.50
2022-08-05T07:20:34.077Z,0.45
2022-08-05T07:23:49.075Z,0.43
2022-08-05T07:26:52.047Z,0.40
2022-08-05T07:30:28.428Z,0.65
2022-08-05T07:33:16.792Z,0.70
2022-08-05T07:36:20.397Z,1.10
2022-08-05T07:39:24.629Z,0.20
2022-08-05T07:42:45.095Z,0.43
2022-08-05T07:45:57.201Z,0.33
2022-08-05T07:49:05.907Z,0.20
2022-08-05T07:52:09.556Z,0.47
2022-08-05T07:55:43.851Z,0.25
2022-08-05T07:58:58.543Z,0.25
2022-08-05T08:01:57.679Z,0.45
2022-08-05T08:05:00.622Z,0.30
2022-08-05T08:08:02.973Z,0.47
2022-08-05T08:11:04.752Z,0.28
2022-08-05T08:14:10.760Z,0.22
2022-08-05T08:17:21.426Z,0.60
2022-08-05T08:21:00.266Z,0.30
2022-08-05T08:24:03.101Z,0.90
2022-08-05T08:27:07.347Z,0.38
2022-08-05T08:30:20.307Z,0.30
2022-08-05T08:33:37.540Z,0.20
2022-08-05T08:36:52.521Z,0.43
2022-08-05T08:39:57.522Z,0.30
2022-08-05T08:45:19.455Z,0.63
2022-08-05T08:46:21.925Z,0.30
2022-08-05T08:50:14.572Z,0.50
2022-08-05T08:52:51.857Z,0.20
2022-08-05T08:56:04.357Z,0.25
2022-08-05T08:59:10.087Z,0.30
2022-08-05T09:02:21.648Z,0.40
2022-08-05T09:05:39.005Z,0.25
2022-08-05T09:08:50.324Z,0.30
2022-08-05T09:11:54.769Z,0.40
2022-08-05T09:15:06.155Z,0.20
2022-08-05T09:18:09.950Z,0.30
2022-08-05T09:21:20.848Z,0.10
2022-08-05T09:24:40.287Z,0.50
2022-08-05T09:28:05.874Z,0.32
2022-08-05T09:31:44.110Z,0.30
2022-08-05T09:34:53.232Z,0.17
2022-08-05T09:38:17.119Z,0.35
2022-08-05T09:41:18.807Z,0.28
2022-08-05T09:44:56.145Z,0.20
2022-08-05T09:47:58.631Z,0.13
2022-08-05T09:51:03.486Z,0.13
2022-08-05T09:54:28.786Z,0.30
2022-08-05T09:57:47.182Z,0.30
2022-08-05T10:01:13.556Z,0.10
2022-08-05T10:04:17.686Z,0.00
2022-08-05T10:08:10.744Z,0.28
2022-08-05T10:10:45.047Z,0.00
2022-08-05T10:13:49.996Z,0.20
2022-08-05T10:16:57.897Z,0.15
2022-08-05T10:20:03.754Z,0.20
2022-08-05T10:23:34.368Z,0.30
2022-08-05T10:26:36.595Z,0.30
2022-08-05T10:30:06.468Z,0.20
2022-08-05T10:33:15.102Z,0.13
2022-08-05T10:36:17.130Z,0.00
2022-08-05T10:40:03.610Z,0.20
2022-08-05T10:42:52.822Z,0.10
2022-08-05T10:46:06.822Z,0.00
2022-08-05T10:49:10.448Z,0.20
2022-08-05T10:52:49.579Z,0.00
2022-08-05T10:56:21.301Z,0.32
2022-08-05T11:00:04.249Z,0.10
2022-08-05T11:03:23.701Z,0.10
2022-08-05T11:06:30.804Z,0.20
2022-08-05T11:09:46.572Z,0.10
2022-08-05T11:12:50.558Z,0.15
2022-08-05T11:16:23.409Z,0.10
2022-08-05T11:20:16.554Z,0.10
2022-08-05T11:24:04.075Z,0.10
2022-08-05T11:27:45.737Z,0.32
2022-08-05T11:30:56.203Z,0.10
2022-08-05T11:34:03.190Z,0.10
2022-08-05T11:37:06.246Z,0.03
2022-08-05T11:41:35.359Z,0.10
2022-08-05T11:44:40.320Z,0.03
2022-08-05T11:47:55.676Z,0.13
2022-08-05T11:50:57.491Z,0.17
2022-08-05T11:54:01.471Z,0.10
2022-08-05T11:57:08.338Z,0.10
2022-08-05T12:03:31.911Z,0.08
2022-08-05T12:06:35.516Z,0.20
2022-08-05T12:09:53.272Z,0.20
2022-08-05T12:12:59.507Z,0.10
2022-08-05T12:16:01.841Z,0.10
2022-08-05T12:19:04.446Z,0.43
2022-08-05T12:22:10.927Z,0.20
2022-08-05T12:25:14.372Z,0.00
2022-08-05T12:28:33.200Z,0.05
2022-08-05T12:31:43.749Z,0.20
2022-08-05T12:34:48.015Z,0.10
2022-08-05T12:37:53.288Z,0.10
2022-08-05T12:40:57.596Z,0.20
2022-08-05T12:44:14.153Z,0.20
2022-08-05T12:47:30.725Z,0.17
2022-08-05T12:50:32.894Z,0.10
2022-08-05T12:53:43.995Z,0.25
2022-08-05T12:56:59.599Z,0.10
2022-08-05T13:01:57.259Z,0.20
2022-08-05T13:03:24.521Z,0.00
2022-08-05T13:06:38.674Z,0.25
2022-08-05T13:09:57.047Z,0.10
2022-08-05T13:13:00.070Z,0.20
2022-08-05T13:16:12.358Z,0.00
2022-08-05T13:19:17.514Z,0.10
2022-08-05T13:22:29.608Z,0.15
2022-08-05T13:25:51.855Z,0.20
2022-08-05T13:28:53.615Z,0.00
2022-08-05T13:32:04.060Z,0.00
2022-08-05T13:35:07.537Z,0.10
2022-08-05T13:38:10.781Z,0.00
2022-08-05T13:41:23.920Z,0.10
2022-08-05T13:44:39.157Z,0.00
2022-08-05T13:48:09.935Z,0.10
2022-08-05T13:51:10.401Z,0.00
2022-08-05T13:54:15.177Z,0.20
2022-08-05T13:57:17.391Z,0.10
2022-08-05T14:00:27.740Z,0.10
2022-08-05T14:03:29.806Z,0.10
2022-08-05T14:06:34.501Z,0.20
2022-08-05T14:09:42.845Z,0.10
2022-08-05T14:12:49.191Z,0.00
2022-08-05T14:16:06.927Z,0.30
2022-08-05T14:19:12.568Z,0.05
2022-08-05T14:22:14.555Z,0.15
2022-08-05T14:25:21.505Z,0.00
2022-08-05T14:28:27.119Z,0.10
2022-08-05T14:32:02.882Z,0.00
2022-08-05T14:34:52.047Z,0.10
2022-08-05T14:37:55.635Z,0.10
2022-08-05T14:40:57.837Z,0.20
2022-08-05T14:44:09.526Z,0.20
2022-08-05T14:47:16.670Z,0.20
2022-08-05T14:50:40.766Z,0.05
2022-08-05T14:53:44.358Z,0.10
2022-08-05T14:56:47.282Z,0.10
2022-08-05T14:59:49.014Z,0.00
2022-08-05T15:02:50.989Z,0.20
2022-08-05T15:06:12.807Z,0.00
2022-08-05T15:09:14.605Z,0.00
2022-08-05T15:12:17.371Z,0.00
2022-08-05T15:15:55.354Z,0.03
2022-08-05T15:18:42.362Z,0.00
2022-08-05T15:21:49.039Z,0.00
2022-08-05T15:24:50.744Z,0.00
2022-08-05T15:27:54.840Z,0.05
2022-08-05T15:30:57.191Z,0.00
2022-08-05T15:38:34.811Z,0.93
2022-08-05T15:41:20.098Z,0.13
2022-08-05T15:44:04.464Z,0.13
2022-08-05T15:47:06.527Z,0.13
2022-08-05T15:50:09.052Z,0.10
2022-08-05T15:53:17.587Z,0.10
2022-08-05T15:56:23.124Z,0.10
2022-08-05T15:59:24.939Z,0.08
2022-08-05T16:02:26.937Z,0.15
2022-08-05T16:05:30.541Z,0.30
2022-08-05T16:08:32.596Z,0.28
2022-08-05T16:11:40.086Z,0.38
2022-08-05T16:14:44.999Z,0.90
2022-08-05T16:17:57.422Z,0.93
2022-08-05T16:21:04.396Z,1.42
2022-08-05T16:24:12.841Z,0.80
2022-08-05T16:27:32.018Z,0.90
2022-08-05T16:30:48.604Z,0.30
2022-08-05T16:33:52.290Z,0.90
2022-08-05T16:36:55.495Z,0.77
2022-08-05T16:40:04.709Z,1.10
2022-08-05T16:43:08.484Z,1.05
2022-08-05T16:46:23.646Z,1.60
2022-08-05T16:49:26.647Z,1.20
2022-08-05T16:52:32.705Z,1.35
2022-08-05T16:55:47.172Z,0.98
2022-08-05T16:58:49.145Z,1.00
2022-08-05T17:01:54.477Z,1.17
2022-08-05T17:04:57.360Z,0.70
2022-08-05T17:07:59.149Z,1.15
2022-08-05T17:11:01.971Z,2.05
2022-08-05T17:14:05.691Z,1.88
2022-08-05T17:17:14.317Z,2.60
2022-08-05T17:20:17.040Z,2.25
2022-08-05T17:24:03.715Z,1.90
2022-08-05T17:26:42.274Z,1.97
2022-08-05T17:29:44.232Z,2.20
2022-08-05T17:32:48.243Z,2.22
2022-08-05T17:36:08.346Z,2.03
2022-08-05T17:39:23.983Z,2.55
2022-08-05T17:42:34.166Z,2.67
2022-08-05T17:45:43.151Z,2.78
2022-08-05T17:48:44.966Z,3.10
2022-08-05T17:51:50.170Z,3.28
2022-08-05T17:54:52.794Z,3.05
2022-08-05T17:57:55.345Z,2.85
2022-08-05T18:00:57.114Z,2.95
2022-08-05T18:04:04.673Z,3.13
2022-08-05T18:07:07.946Z,3.03
2022-08-05T18:10:21.131Z,3.15
2022-08-05T18:13:23.240Z,3.10
2022-08-05T18:16:27.517Z,2.72
2022-08-05T18:19:29.978Z,2.78
2022-08-05T18:22:36.300Z,3.20
2022-08-05T18:25:47.783Z,2.70
2022-08-05T18:28:59.708Z,3.10
2022-08-05T18:32:01.405Z,2.75
2022-08-05T18:35:05.302Z,2.25
2022-08-05T18:38:07.717Z,2.80
2022-08-05T18:41:58.150Z,2.90
2022-08-05T18:44:34.865Z,2.35
2022-08-05T18:47:38.161Z,2.60
2022-08-05T18:52:03.353Z,2.67
2022-08-05T18:54:20.799Z,2.65
2022-08-05T18:57:23.878Z,3.33
2022-08-05T19:00:29.001Z,2.40
2022-08-05T19:03:52.723Z,2.10
2022-08-05T19:06:53.757Z,2.58
2022-08-05T19:09:56.696Z,2.60
2022-08-05T19:12:58.474Z,2.08
2022-08-05T19:16:03.775Z,2.08
2022-08-05T19:19:05.713Z,2.00
2022-08-05T19:22:07.421Z,2.40
2022-08-05T19:25:10.704Z,2.40
2022-08-05T19:28:23.513Z,1.85
2022-08-05T19:31:26.411Z,1.80
2022-08-05T19:34:35.443Z,1.73
2022-08-05T19:38:04.188Z,1.95
2022-08-05T19:40:58.840Z,1.95
2022-08-05T19:44:13.487Z,1.90
2022-08-05T19:47:16.563Z,1.67
2022-08-05T19:50:20.044Z,1.63
2022-08-05T19:54:04.222Z,1.98
2022-08-05T19:56:43.581Z,2.40
2022-08-05T19:59:54.800Z,2.38
2022-08-05T20:03:08.607Z,2.15
2022-08-05T20:06:15.238Z,2.30
2022-08-05T20:09:17.546Z,2.28
2022-08-05T20:12:20.970Z,2.58
2022-08-05T20:15:52.327Z,3.40
2022-08-05T20:18:45.082Z,3.00
2022-08-05T20:21:46.777Z,2.78
2022-08-05T20:24:48.486Z,3.15
2022-08-05T20:27:50.702Z,1.98
2022-08-05T20:30:52.419Z,2.20
2022-08-05T20:33:54.314Z,2.40
2022-08-05T20:36:56.054Z,2.20
2022-08-05T20:39:58.413Z,1.58
2022-08-05T20:43:00.375Z,1.50
2022-08-05T20:46:02.139Z,1.60
2022-08-05T20:49:03.918Z,1.52
2022-08-05T20:52:08.716Z,1.38
2022-08-05T20:56:07.309Z,1.45
2022-08-05T20:58:34.206Z,0.93
2022-08-05T21:01:38.193Z,0.90
2022-08-05T21:04:40.760Z,0.90
2022-08-05T21:07:45.740Z,0.50
2022-08-05T21:10:53.659Z,0.50
2022-08-05T21:13:56.743Z,0.70
2022-08-05T21:16:58.750Z,0.75
2022-08-05T21:20:04.325Z,1.30
2022-08-05T21:23:12.915Z,0.88
2022-08-05T21:26:15.894Z,0.75
2022-08-05T21:29:17.830Z,0.70
2022-08-05T21:32:20.378Z,0.80
2022-08-05T21:35:30.084Z,0.70
2022-08-05T21:38:32.459Z,0.30
2022-08-05T21:41:35.533Z,0.73
2022-08-05T21:44:37.621Z,0.40
2022-08-05T21:47:56.255Z,0.88
2022-08-05T21:50:59.450Z,0.50
2022-08-05T21:54:03.746Z,0.23
2022-08-05T21:57:29.699Z,0.40
2022-08-05T22:00:28.366Z,0.63
2022-08-05T22:03:51.923Z,0.30
2022-08-05T22:06:52.805Z,0.55
2022-08-05T22:09:54.501Z,0.55
2022-08-05T22:13:08.771Z,0.20
2022-08-05T22:16:42.080Z,0.20
2022-08-05T22:20:00.358Z,0.38
2022-08-05T22:23:24.037Z,0.38
2022-08-05T22:26:49.617Z,0.50
2022-08-05T22:29:54.240Z,0.30
2022-08-05T22:32:56.105Z,0.35
2022-08-05T22:35:59.894Z,0.50
2022-08-05T22:39:04.388Z,0.22
2022-08-05T22:42:15.280Z,0.45
2022-08-05T22:45:23.394Z,0.20
2022-08-05T22:48:27.234Z,0.20
2022-08-05T22:52:03.126Z,0.73
2022-08-05T22:54:51.027Z,0.35
2022-08-05T22:57:53.815Z,0.65
2022-08-05T23:00:57.166Z,0.63
2022-08-05T23:03:59.740Z,0.25
2022-08-05T23:07:01.861Z,0.50
2022-08-05T23:10:04.463Z,1.17
2022-08-05T23:13:06.205Z,0.70
2022-08-05T23:16:08.071Z,0.60
2022-08-05T23:19:10.144Z,0.40
2022-08-05T23:22:27.463Z,0.40
2022-08-05T23:25:53.412Z,0.40
2022-08-05T23:28:51.500Z,0.90
2022-08-05T23:31:55.825Z,0.20
2022-08-05T23:34:58.606Z,0.40
2022-08-05T23:38:00.310Z,0.30
2022-08-05T23:41:02.409Z,0.40
2022-08-05T23:44:06.522Z,0.60
2022-08-05T23:47:14.393Z,0.30
2022-08-05T23:50:20.045Z,0.65
2022-08-05T23:53:22.571Z,0.40
2022-08-05T23:56:27.354Z,1.25
